Decoded Metar for KMSN (MADISON in WI, USA) (IATA:MSN) | Meteo·Mobile Aviation Weather
aviador You're here:

KMSN Decoded Metar

MADISON in WI, USA
Report Time2019-01-21 23:53:00
UTC Time2019-01-22 00:27:18
Flight Rules vfr VFR
Wind150° at 12 kt
W.Decomp.*RWY 14: 11.7 kt HW 2.7 kt RCW
RWY 18: 10.7 kt HW 5.4 kt LCW
RWY 21: 6.5 kt HW 10.1 kt LCW
W.Rank150° ranks 22
Current wind is above 150° avg. (8.2)
Visibility9999 m
Phenomena:N/A
Clouds:Few 090 Hf
Broken 130 Hf
Expected CloudBase > 2,000 ft AGL from Temp-Dew spread
Ceiling13,000 ft
Temp-10°C (ISA -23)
Dew Point-15°C (67% RH)
AAT-17.7°C
QNH1028 hPa
Density Alt-2,536 ft
Elevation856 ft
Report Wrong Elevation
Raw Report
KMSN 212353Z 15012KT 10SM FEW090 BKN130 M10/M15 A3035 RMK AO2
SLP301 4/003 T11001150 11089 21117 56019=

Extra information for KMSN:More info

Metar Taf Metar & Taf Last 4 Metars F.Rules Stats Wind Profile Meteogram Temp Stats Airport Information Weather charts Add Link Nearby VenuesMetar ALERT Operation Metar Decoded Social comments

AIRNAV info for KMSN